createdAt,value
2022-07-25T00:01:22.698Z,2.00
2022-07-25T00:03:52.165Z,1.43
2022-07-25T00:06:20.413Z,1.83
2022-07-25T00:08:48.562Z,1.20
2022-07-25T00:11:18.073Z,1.43
2022-07-25T00:13:46.239Z,1.33
2022-07-25T00:16:14.830Z,1.67
2022-07-25T00:18:43.158Z,1.50
2022-07-25T00:21:11.498Z,1.50
2022-07-25T00:23:39.846Z,1.20
2022-07-25T00:26:08.176Z,1.50
2022-07-25T00:28:37.636Z,1.23
2022-07-25T00:31:06.065Z,1.10
2022-07-25T00:33:34.357Z,1.33
2022-07-25T00:36:02.705Z,1.50
2022-07-25T00:38:30.887Z,1.33
2022-07-25T00:40:59.122Z,1.00
2022-07-25T00:43:27.917Z,1.10
2022-07-25T00:45:59.374Z,1.40
2022-07-25T00:48:28.854Z,1.30
2022-07-25T00:50:58.139Z,1.37
2022-07-25T00:53:26.945Z,1.40
2022-07-25T00:55:55.946Z,1.20
2022-07-25T00:58:24.089Z,1.40
2022-07-25T01:00:52.443Z,1.10
2022-07-25T01:03:22.197Z,1.30
2022-07-25T01:05:53.686Z,1.37
2022-07-25T01:08:23.597Z,1.30
2022-07-25T01:10:51.810Z,1.37
2022-07-25T01:13:20.968Z,1.20
2022-07-25T01:15:49.334Z,1.67
2022-07-25T01:18:18.349Z,1.33
2022-07-25T01:20:48.137Z,1.20
2022-07-25T01:23:16.307Z,1.10
2022-07-25T01:25:44.469Z,1.07
2022-07-25T01:28:12.661Z,1.30
2022-07-25T01:30:41.192Z,1.13
2022-07-25T01:33:09.706Z,1.20
2022-07-25T01:35:43.284Z,1.60
2022-07-25T01:38:13.190Z,1.30
2022-07-25T01:40:42.073Z,1.23
2022-07-25T01:43:11.018Z,1.30
2022-07-25T01:45:39.330Z,1.23
2022-07-25T01:48:08.087Z,1.00
2022-07-25T01:50:36.275Z,1.63
2022-07-25T01:53:05.078Z,1.40
2022-07-25T01:55:34.611Z,1.17
2022-07-25T01:58:02.811Z,1.23
2022-07-25T02:00:31.347Z,1.80
2022-07-25T02:03:17.290Z,1.60
2022-07-25T02:05:45.444Z,1.73
2022-07-25T02:08:13.675Z,1.50
2022-07-25T02:10:43.629Z,1.13
2022-07-25T02:13:11.833Z,1.07
2022-07-25T02:15:40.031Z,1.83
2022-07-25T02:18:08.304Z,1.00
2022-07-25T02:20:36.755Z,1.30
2022-07-25T02:23:05.936Z,1.40
2022-07-25T02:25:34.586Z,1.60
2022-07-25T02:28:04.970Z,1.33
2022-07-25T02:30:33.188Z,1.20
2022-07-25T02:33:01.381Z,1.23
2022-07-25T02:35:29.920Z,1.40
2022-07-25T02:37:58.462Z,1.20
2022-07-25T02:40:26.686Z,1.03
2022-07-25T02:42:54.940Z,1.03
2022-07-25T02:45:24.462Z,1.50
2022-07-25T02:47:52.778Z,1.30
2022-07-25T02:50:20.946Z,1.80
2022-07-25T02:52:49.168Z,1.70
2022-07-25T02:55:17.346Z,1.60
2022-07-25T02:57:45.489Z,1.90
2022-07-25T03:00:15.349Z,1.30
2022-07-25T03:02:45.342Z,1.97
2022-07-25T03:05:14.895Z,1.57
2022-07-25T03:07:44.125Z,1.30
2022-07-25T03:10:15.012Z,1.70
2022-07-25T03:12:44.716Z,1.50
2022-07-25T03:15:13.892Z,1.50
2022-07-25T03:17:43.053Z,1.23
2022-07-25T03:20:13.105Z,1.10
2022-07-25T03:22:41.700Z,1.63
2022-07-25T03:25:15.879Z,1.43
2022-07-25T03:27:50.726Z,1.60
2022-07-25T03:30:18.909Z,1.07
2022-07-25T03:32:47.785Z,1.77
2022-07-25T03:35:17.304Z,1.47
2022-07-25T03:37:45.646Z,1.60
2022-07-25T03:40:14.444Z,1.30
2022-07-25T03:42:44.371Z,1.90
2022-07-25T03:45:12.990Z,1.43
2022-07-25T03:47:41.213Z,1.47
2022-07-25T03:50:10.288Z,1.67
2022-07-25T03:52:39.972Z,1.30
2022-07-25T03:55:10.609Z,1.40
2022-07-25T03:57:39.136Z,1.10
2022-07-25T04:00:10.247Z,1.37
2022-07-25T04:02:38.819Z,1.50
2022-07-25T04:05:08.611Z,1.20
2022-07-25T04:07:37.005Z,1.30
2022-07-25T04:10:08.973Z,1.50
2022-07-25T04:12:37.352Z,1.70
2022-07-25T04:15:06.346Z,1.57
2022-07-25T04:17:34.667Z,1.30
2022-07-25T04:20:08.250Z,1.30
2022-07-25T04:22:37.112Z,1.83
2022-07-25T04:25:07.903Z,1.70
2022-07-25T04:27:36.063Z,1.67
2022-07-25T04:30:04.858Z,1.20
2022-07-25T04:32:32.997Z,1.50
2022-07-25T04:35:01.178Z,1.43
2022-07-25T04:37:29.330Z,1.80
2022-07-25T04:39:57.493Z,1.40
2022-07-25T04:42:27.872Z,1.07
2022-07-25T04:44:56.033Z,1.57
2022-07-25T04:47:24.208Z,1.33
2022-07-25T04:49:52.369Z,1.63
2022-07-25T04:52:20.619Z,1.30
2022-07-25T04:54:48.793Z,2.07
2022-07-25T04:57:17.026Z,1.70
2022-07-25T04:59:46.507Z,1.73
2022-07-25T05:02:14.745Z,1.60
2022-07-25T05:04:45.322Z,1.43
2022-07-25T05:07:13.867Z,1.90
2022-07-25T05:09:42.056Z,1.47
2022-07-25T05:12:10.673Z,1.47
2022-07-25T05:14:39.422Z,2.07
2022-07-25T05:17:09.322Z,1.43
2022-07-25T05:19:37.798Z,2.00
2022-07-25T05:22:06.356Z,1.43
2022-07-25T05:24:34.826Z,1.43
2022-07-25T05:27:04.161Z,1.33
2022-07-25T05:29:32.747Z,1.40
2022-07-25T05:32:01.074Z,1.50
2022-07-25T05:34:30.614Z,1.33
2022-07-25T05:36:58.760Z,1.20
2022-07-25T05:39:26.997Z,0.93
2022-07-25T05:41:55.427Z,1.37
2022-07-25T05:44:23.936Z,2.20
2022-07-25T05:46:52.112Z,1.43
2022-07-25T05:49:20.796Z,1.10
2022-07-25T05:51:50.378Z,1.77
2022-07-25T05:54:18.588Z,1.33
2022-07-25T05:56:46.756Z,1.60
2022-07-25T05:59:14.943Z,1.33
2022-07-25T06:01:43.298Z,1.30
2022-07-25T06:04:11.666Z,1.60
2022-07-25T06:06:40.081Z,1.60
2022-07-25T06:09:09.626Z,1.47
2022-07-25T06:11:51.037Z,1.40
2022-07-25T06:14:26.093Z,1.17
2022-07-25T06:16:55.218Z,1.73
2022-07-25T06:19:23.545Z,1.83
2022-07-25T06:21:51.905Z,1.50
2022-07-25T06:24:21.580Z,1.33
2022-07-25T06:26:49.744Z,2.03
2022-07-25T06:29:18.323Z,1.60
2022-07-25T06:31:47.321Z,1.93
2022-07-25T06:34:15.724Z,2.23
2022-07-25T06:36:43.942Z,1.63
2022-07-25T06:39:12.350Z,2.00
2022-07-25T06:41:41.856Z,1.63
2022-07-25T06:44:10.259Z,1.60
2022-07-25T06:46:38.576Z,1.40
2022-07-25T06:49:07.063Z,1.80
2022-07-25T06:51:36.024Z,1.67
2022-07-25T06:54:04.782Z,1.57
2022-07-25T06:56:33.237Z,1.73
2022-07-25T06:59:02.734Z,1.80
2022-07-25T07:01:31.348Z,1.97
2022-07-25T07:03:59.537Z,2.20
2022-07-25T07:06:27.869Z,2.03
2022-07-25T07:08:56.128Z,1.93
2022-07-25T07:11:24.326Z,2.10
2022-07-25T07:13:52.506Z,1.90
2022-07-25T07:16:22.061Z,1.60
2022-07-25T07:18:50.371Z,1.80
2022-07-25T07:21:21.554Z,2.17
2022-07-25T07:23:53.471Z,2.10
2022-07-25T07:26:22.130Z,3.37
2022-07-25T07:28:50.269Z,3.07
2022-07-25T07:31:19.347Z,2.20
2022-07-25T07:33:49.032Z,2.27
2022-07-25T07:36:17.739Z,2.30
2022-07-25T07:38:46.001Z,2.90
2022-07-25T07:41:14.846Z,2.60
2022-07-25T07:43:43.136Z,2.60
2022-07-25T07:46:11.444Z,2.73
2022-07-25T07:48:40.065Z,2.50
2022-07-25T07:51:09.634Z,3.20
2022-07-25T07:53:55.850Z,2.50
2022-07-25T07:56:24.239Z,3.30
2022-07-25T07:58:52.427Z,2.50
2022-07-25T08:01:20.953Z,3.03
2022-07-25T08:03:49.208Z,2.97
2022-07-25T08:06:18.818Z,2.50
2022-07-25T08:08:47.072Z,3.23
2022-07-25T08:11:15.329Z,2.73
2022-07-25T08:13:43.521Z,3.80
2022-07-25T08:16:13.770Z,3.33
2022-07-25T08:18:41.959Z,2.87
2022-07-25T08:21:10.885Z,4.00
2022-07-25T08:23:40.889Z,3.70
2022-07-25T08:26:09.177Z,2.77
2022-07-25T08:28:37.345Z,3.93
2022-07-25T08:31:05.610Z,2.80
2022-07-25T08:33:33.878Z,3.20
2022-07-25T08:36:02.293Z,4.47
2022-07-25T08:38:30.789Z,3.33
2022-07-25T08:41:01.314Z,4.03
2022-07-25T08:43:32.883Z,4.03
2022-07-25T08:46:02.904Z,3.60
2022-07-25T08:48:31.127Z,4.03
2022-07-25T08:51:01.453Z,4.10
2022-07-25T08:53:33.130Z,3.20
2022-07-25T08:56:10.737Z,3.23
2022-07-25T08:58:41.417Z,4.40
2022-07-25T09:01:09.951Z,3.87
2022-07-25T09:03:38.899Z,3.90
2022-07-25T09:06:18.847Z,4.30
2022-07-25T09:08:54.648Z,3.60
2022-07-25T09:11:32.699Z,3.80
2022-07-25T09:14:02.609Z,4.30
2022-07-25T09:16:35.793Z,4.17
2022-07-25T09:19:11.719Z,3.50
2022-07-25T09:21:41.681Z,4.13
2022-07-25T09:24:12.701Z,3.77
2022-07-25T09:26:47.994Z,4.00
2022-07-25T09:29:21.509Z,3.93
2022-07-25T09:31:50.278Z,3.80
2022-07-25T09:34:30.958Z,3.23
2022-07-25T09:36:59.230Z,3.90
2022-07-25T09:39:35.266Z,3.60
2022-07-25T09:42:15.503Z,3.47
2022-07-25T09:44:43.935Z,4.10
2022-07-25T09:47:13.210Z,3.77
2022-07-25T09:49:42.604Z,4.43
2022-07-25T09:52:11.620Z,4.00
2022-07-25T09:54:40.377Z,4.47
2022-07-25T09:57:10.161Z,4.23
2022-07-25T09:59:39.512Z,4.10
2022-07-25T10:02:10.580Z,4.60
2022-07-25T10:04:47.106Z,4.10
2022-07-25T10:07:20.371Z,4.87
2022-07-25T10:09:50.908Z,5.00
2022-07-25T10:12:23.865Z,3.50
2022-07-25T10:15:07.453Z,4.27
2022-07-25T10:17:37.287Z,4.70
2022-07-25T10:20:08.351Z,4.50
2022-07-25T10:22:55.596Z,5.00
2022-07-25T10:25:25.024Z,4.77
2022-07-25T10:28:00.974Z,5.17
2022-07-25T10:30:36.082Z,4.97
2022-07-25T10:33:06.560Z,4.90
2022-07-25T10:35:35.249Z,4.47
2022-07-25T10:38:05.469Z,5.43
2022-07-25T10:40:36.713Z,4.27
2022-07-25T10:43:12.260Z,5.07
2022-07-25T10:45:42.696Z,4.70
2022-07-25T10:48:14.373Z,4.90
2022-07-25T10:50:55.885Z,5.17
2022-07-25T10:53:35.538Z,4.87
2022-07-25T10:56:06.819Z,5.10
2022-07-25T10:58:53.017Z,5.37
2022-07-25T11:01:23.249Z,5.10
2022-07-25T11:03:52.126Z,5.37
2022-07-25T11:06:31.736Z,4.50
2022-07-25T11:09:01.164Z,5.70
2022-07-25T11:11:37.285Z,5.43
2022-07-25T11:14:14.652Z,5.70
2022-07-25T11:16:43.038Z,5.67
2022-07-25T11:19:23.931Z,5.20
2022-07-25T11:21:53.616Z,5.77
2022-07-25T11:24:22.230Z,5.43
2022-07-25T11:26:52.310Z,6.07
2022-07-25T11:29:23.845Z,6.07
2022-07-25T11:31:53.305Z,6.03
2022-07-25T11:34:24.541Z,6.47
2022-07-25T11:36:55.639Z,6.63
2022-07-25T11:39:26.014Z,5.70
2022-07-25T11:42:03.685Z,5.50
2022-07-25T11:44:38.180Z,5.90
2022-07-25T11:47:08.381Z,5.90
2022-07-25T11:49:46.598Z,5.50
2022-07-25T11:52:22.768Z,5.77
2022-07-25T11:54:52.846Z,5.73
2022-07-25T11:57:22.575Z,5.57
2022-07-25T11:59:52.459Z,6.60
2022-07-25T12:02:31.166Z,6.10
2022-07-25T12:05:01.812Z,6.30
2022-07-25T12:07:38.011Z,5.87
2022-07-25T12:10:07.855Z,5.47
2022-07-25T12:12:43.661Z,6.13
2022-07-25T12:15:14.897Z,5.70
2022-07-25T12:17:44.161Z,5.90
2022-07-25T12:20:17.022Z,5.93
2022-07-25T12:22:46.042Z,5.93
2022-07-25T12:25:14.833Z,6.00
2022-07-25T12:27:43.351Z,6.47
2022-07-25T12:30:14.900Z,5.20
2022-07-25T12:32:43.758Z,6.43
2022-07-25T12:35:14.846Z,6.10
2022-07-25T12:37:44.553Z,6.60
2022-07-25T12:40:14.672Z,6.90
2022-07-25T12:42:43.137Z,6.27
2022-07-25T12:45:13.835Z,5.30
2022-07-25T12:47:43.658Z,5.73
2022-07-25T12:50:12.438Z,6.53
2022-07-25T12:52:41.901Z,5.93
2022-07-25T12:55:12.766Z,7.03
2022-07-25T12:57:41.184Z,6.27
2022-07-25T13:00:12.284Z,6.20
2022-07-25T13:02:42.399Z,6.50
2022-07-25T13:05:11.413Z,6.67
2022-07-25T13:07:39.802Z,6.00
2022-07-25T13:10:08.946Z,5.77
2022-07-25T13:12:37.295Z,6.07
2022-07-25T13:15:06.411Z,6.30
2022-07-25T13:17:35.351Z,6.80
2022-07-25T13:20:06.113Z,6.53
2022-07-25T13:22:34.288Z,6.73
2022-07-25T13:25:02.466Z,6.70
2022-07-25T13:27:30.949Z,6.10
2022-07-25T13:29:59.259Z,5.70
2022-07-25T13:32:28.468Z,6.93
2022-07-25T13:34:56.728Z,7.17
2022-07-25T13:37:26.312Z,5.73
2022-07-25T13:39:54.626Z,6.83
2022-07-25T13:42:23.072Z,6.53
2022-07-25T13:44:51.295Z,5.63
2022-07-25T13:47:19.544Z,5.80
2022-07-25T13:49:47.733Z,7.43
2022-07-25T13:52:16.009Z,7.50
2022-07-25T13:54:45.488Z,6.37
2022-07-25T13:57:13.656Z,6.63
2022-07-25T13:59:42.054Z,6.40
2022-07-25T14:02:10.337Z,6.20
2022-07-25T14:04:38.514Z,6.03
2022-07-25T14:07:06.867Z,6.97
2022-07-25T14:09:35.013Z,6.30
2022-07-25T14:12:04.919Z,6.17
2022-07-25T14:14:33.062Z,5.70
2022-07-25T14:17:01.417Z,6.40
2022-07-25T14:19:29.648Z,6.90
2022-07-25T14:21:57.886Z,7.00
2022-07-25T14:24:26.109Z,6.73
2022-07-25T14:26:55.114Z,6.67
2022-07-25T14:29:30.122Z,6.10
2022-07-25T14:31:58.769Z,5.90
2022-07-25T14:34:27.001Z,6.07
2022-07-25T14:36:55.486Z,6.43
2022-07-25T14:39:24.022Z,6.33
2022-07-25T14:41:53.432Z,6.03
2022-07-25T14:44:21.915Z,6.47
2022-07-25T14:46:52.180Z,6.27
2022-07-25T14:49:20.611Z,5.87
2022-07-25T14:51:49.436Z,5.50
2022-07-25T14:54:18.256Z,6.33
2022-07-25T14:56:46.454Z,6.30
2022-07-25T14:59:14.796Z,6.03
2022-07-25T15:01:42.948Z,5.77
2022-07-25T15:04:12.410Z,5.57
2022-07-25T15:06:40.671Z,5.60
2022-07-25T15:09:09.456Z,6.17
2022-07-25T15:11:38.022Z,5.50
2022-07-25T15:14:06.169Z,5.53
2022-07-25T15:16:34.510Z,4.90
2022-07-25T15:19:18.298Z,5.70
2022-07-25T15:21:47.874Z,5.73
2022-07-25T15:24:16.053Z,5.40
2022-07-25T15:26:44.397Z,4.90
2022-07-25T15:29:15.174Z,4.57
2022-07-25T15:31:43.366Z,5.30
2022-07-25T15:34:11.819Z,5.07
2022-07-25T15:36:40.108Z,5.97
2022-07-25T15:39:09.924Z,5.27
2022-07-25T15:41:38.433Z,5.17
2022-07-25T15:44:06.981Z,4.60
2022-07-25T15:46:35.159Z,5.53
2022-07-25T15:49:04.162Z,5.53
2022-07-25T15:51:32.910Z,5.10
2022-07-25T15:54:01.069Z,4.70
2022-07-25T15:56:30.626Z,5.77
2022-07-25T15:58:58.894Z,4.93
2022-07-25T16:01:27.316Z,5.30
2022-07-25T16:03:59.795Z,5.43
2022-07-25T16:06:28.883Z,5.77
2022-07-25T16:08:57.162Z,5.70
2022-07-25T16:11:25.472Z,5.27
2022-07-25T16:13:54.992Z,6.80
2022-07-25T16:16:25.597Z,5.53
2022-07-25T16:18:54.202Z,5.13
2022-07-25T16:21:22.431Z,5.47
2022-07-25T16:23:50.645Z,5.50
2022-07-25T16:26:19.264Z,6.33
2022-07-25T16:28:49.011Z,5.80
2022-07-25T16:31:18.979Z,5.30
2022-07-25T16:33:47.179Z,5.47
2022-07-25T16:36:15.396Z,4.50
2022-07-25T16:38:45.158Z,4.70
2022-07-25T16:41:13.459Z,5.00
2022-07-25T16:43:41.813Z,5.27
2022-07-25T16:46:10.804Z,5.80
2022-07-25T16:48:40.569Z,5.33
2022-07-25T16:51:08.876Z,5.57
2022-07-25T16:53:37.246Z,5.60
2022-07-25T16:56:06.028Z,5.73
2022-07-25T16:58:34.942Z,5.37
2022-07-25T17:01:03.156Z,6.37
2022-07-25T17:03:31.455Z,5.90
2022-07-25T17:06:01.436Z,5.13
2022-07-25T17:08:31.882Z,5.77
2022-07-25T17:11:00.247Z,5.40
2022-07-25T17:13:28.657Z,5.97
2022-07-25T17:15:57.159Z,5.83
2022-07-25T17:18:25.541Z,6.00
2022-07-25T17:20:54.606Z,6.00
2022-07-25T17:23:24.353Z,5.80
2022-07-25T17:25:53.505Z,5.50
2022-07-25T17:28:21.917Z,5.97
2022-07-25T17:30:50.341Z,5.90
2022-07-25T17:33:18.908Z,5.73
2022-07-25T17:35:47.087Z,5.80
2022-07-25T17:38:15.357Z,5.87
2022-07-25T17:40:45.047Z,5.10
2022-07-25T17:43:13.241Z,5.20
2022-07-25T17:45:41.561Z,5.17
2022-07-25T17:48:11.089Z,5.40
2022-07-25T17:50:39.702Z,5.40
2022-07-25T17:53:07.938Z,5.23
2022-07-25T17:55:38.994Z,5.40
2022-07-25T17:58:11.012Z,5.47
2022-07-25T18:00:39.965Z,5.97
2022-07-25T18:03:08.645Z,6.60
2022-07-25T18:05:37.029Z,6.80
2022-07-25T18:08:05.992Z,7.63
2022-07-25T18:10:34.205Z,7.13
2022-07-25T18:13:03.413Z,8.90
2022-07-25T18:15:33.012Z,10.57
2022-07-25T18:18:01.223Z,8.50
2022-07-25T18:20:29.416Z,9.90
2022-07-25T18:22:58.621Z,8.80
2022-07-25T18:25:27.313Z,8.87
2022-07-25T18:27:55.646Z,9.10
2022-07-25T18:30:28.863Z,9.70
2022-07-25T18:32:58.912Z,9.37
2022-07-25T18:35:50.497Z,9.83
2022-07-25T18:38:19.010Z,9.40
2022-07-25T18:40:47.420Z,10.53
2022-07-25T18:43:16.444Z,11.47
2022-07-25T18:45:46.715Z,11.20
2022-07-25T18:48:16.542Z,12.50
2022-07-25T18:50:44.855Z,11.53
2022-07-25T18:53:13.024Z,13.37
2022-07-25T18:55:42.433Z,11.43
2022-07-25T18:58:15.690Z,10.97
2022-07-25T19:00:44.067Z,10.40
2022-07-25T19:03:12.302Z,10.30
2022-07-25T19:05:42.682Z,10.40
2022-07-25T19:08:11.046Z,10.07
2022-07-25T19:10:40.768Z,10.13
2022-07-25T19:13:15.195Z,9.70
2022-07-25T19:15:50.337Z,11.37
2022-07-25T19:18:18.624Z,11.40
2022-07-25T19:20:48.106Z,10.63
2022-07-25T19:23:16.288Z,10.60
2022-07-25T19:25:44.569Z,9.37
2022-07-25T19:28:13.172Z,9.53
2022-07-25T19:30:41.731Z,9.90
2022-07-25T19:33:09.987Z,9.37
2022-07-25T19:35:38.669Z,10.60
2022-07-25T19:38:08.413Z,9.33
2022-07-25T19:40:39.908Z,10.33
2022-07-25T19:43:08.172Z,10.00
2022-07-25T19:45:36.529Z,9.13
2022-07-25T19:48:05.364Z,10.50
2022-07-25T19:50:34.117Z,9.20
2022-07-25T19:53:02.729Z,8.80
2022-07-25T19:55:32.253Z,9.83
2022-07-25T19:58:00.365Z,9.23
2022-07-25T20:00:28.408Z,10.13
2022-07-25T20:02:56.731Z,9.00
2022-07-25T20:05:25.109Z,10.33
2022-07-25T20:07:53.264Z,10.63
2022-07-25T20:10:21.554Z,10.90
2022-07-25T20:12:51.585Z,9.37
2022-07-25T20:15:19.729Z,8.70
2022-07-25T20:17:48.382Z,9.53
2022-07-25T20:20:17.234Z,9.60
2022-07-25T20:22:45.384Z,9.10
2022-07-25T20:25:16.552Z,9.67
2022-07-25T20:27:45.241Z,9.10
2022-07-25T20:30:15.196Z,8.73
2022-07-25T20:32:43.420Z,9.80
2022-07-25T20:35:11.651Z,8.60
2022-07-25T20:37:40.223Z,9.50
2022-07-25T20:40:11.965Z,9.43
2022-07-25T20:42:40.378Z,9.70
2022-07-25T20:45:09.694Z,8.43
2022-07-25T20:47:39.222Z,9.80
2022-07-25T20:50:09.559Z,8.97
2022-07-25T20:52:38.990Z,9.40
2022-07-25T20:55:09.008Z,8.80
2022-07-25T20:57:37.182Z,9.07
2022-07-25T21:00:06.333Z,9.40
2022-07-25T21:02:34.620Z,8.53
2022-07-25T21:05:04.582Z,9.30
2022-07-25T21:07:32.732Z,9.37
2022-07-25T21:10:00.865Z,9.10
2022-07-25T21:12:32.524Z,8.60
2022-07-25T21:15:01.566Z,9.40
2022-07-25T21:17:29.734Z,9.47
2022-07-25T21:19:58.024Z,9.33
2022-07-25T21:22:27.660Z,9.20
2022-07-25T21:24:55.946Z,10.80
2022-07-25T21:27:24.188Z,11.03
2022-07-25T21:29:52.345Z,9.50
2022-07-25T21:32:21.302Z,8.77
2022-07-25T21:34:49.841Z,7.83
2022-07-25T21:37:18.302Z,7.97
2022-07-25T21:39:47.808Z,7.10
2022-07-25T21:42:16.021Z,7.63
2022-07-25T21:44:45.366Z,6.20
2022-07-25T21:47:14.153Z,6.80
2022-07-25T21:49:59.824Z,7.40
2022-07-25T21:52:34.443Z,7.50
2022-07-25T21:55:05.754Z,8.23
2022-07-25T21:57:33.945Z,8.03
2022-07-25T22:00:02.109Z,7.77
2022-07-25T22:02:30.366Z,8.47
2022-07-25T22:04:58.832Z,9.37
2022-07-25T22:07:27.000Z,9.17
2022-07-25T22:09:55.174Z,8.40
2022-07-25T22:12:24.666Z,9.30
2022-07-25T22:14:52.856Z,10.10
2022-07-25T22:17:21.124Z,10.00
2022-07-25T22:19:49.305Z,9.47
2022-07-25T22:22:17.521Z,9.97
2022-07-25T22:24:46.714Z,11.53
2022-07-25T22:27:15.023Z,10.47
2022-07-25T22:29:44.510Z,10.40
2022-07-25T22:32:13.413Z,9.67
2022-07-25T22:34:41.663Z,10.70
2022-07-25T22:37:09.908Z,10.57
2022-07-25T22:39:38.108Z,10.83
2022-07-25T22:42:06.718Z,8.93
2022-07-25T22:44:34.865Z,9.20
2022-07-25T22:47:04.438Z,9.70
2022-07-25T22:49:32.617Z,9.37
2022-07-25T22:52:00.856Z,8.20
2022-07-25T22:54:29.060Z,7.90
2022-07-25T22:56:57.285Z,7.70
2022-07-25T22:59:25.446Z,9.37
2022-07-25T23:01:53.816Z,8.80
2022-07-25T23:04:23.412Z,9.60
2022-07-25T23:06:51.780Z,9.47
2022-07-25T23:09:20.336Z,8.67
2022-07-25T23:11:48.500Z,9.87
2022-07-25T23:14:16.901Z,9.70
2022-07-25T23:16:45.148Z,10.37
2022-07-25T23:19:13.327Z,8.40
2022-07-25T23:21:42.823Z,8.70
2022-07-25T23:24:10.983Z,9.00
2022-07-25T23:26:39.346Z,8.73
2022-07-25T23:29:07.769Z,8.20
2022-07-25T23:31:36.278Z,7.90
2022-07-25T23:34:06.494Z,7.47
2022-07-25T23:36:34.644Z,7.93
2022-07-25T23:39:04.506Z,7.27
2022-07-25T23:41:32.753Z,7.10
2022-07-25T23:44:03.144Z,6.97
2022-07-25T23:46:32.163Z,7.30
2022-07-25T23:49:01.024Z,7.80
2022-07-25T23:51:29.591Z,7.70
2022-07-25T23:53:57.851Z,7.47
2022-07-25T23:56:27.356Z,8.00
2022-07-25T23:58:55.974Z,7.73
